CheckWX is a tool to help pilots better visualize weather data.  It is not intended as a substitute for an official pre-flight weather briefing.

20:36:47 UTC

DAAT METAR
Aguenar – Hadj Bey Akhamok Airport
Tamanrasset, Algeria
Current

37 mins ago

DAAT 182000Z 15008KT CAVOK 13/M17 Q1021
Observed
Feb-18 @ 20:00 UTC
Wind
  • 150° at 8 KTS
Visibility
10,000+ meters
Flight Rules
VFR
Cloud Levels
  • Clear skies
Temperature
13°C / 55°F
Dewpoint
-17°C / 1°F
Humidity
11%
Altimeter
30.15" Hg
Pressure
1020.92 hPa
Previous

1 hour ago

DAAT 181930Z 15009KT CAVOK 14/M17 Q1021
Observed
Feb-18 @ 19:30 UTC
Wind
  • 150° at 9 KTS
Visibility
10,000+ meters
Flight Rules
VFR
Cloud Levels
  • Clear skies
Temperature
14°C / 57°F
Dewpoint
-17°C / 1°F
Humidity
10%
Altimeter
30.15" Hg
Pressure
1020.92 hPa
Previous

2 hours ago

DAAT 181900Z 15010KT CAVOK 16/M17 Q1020
Observed
Feb-18 @ 19:00 UTC
Wind
  • 150° at 10 KTS
Visibility
10,000+ meters
Flight Rules
VFR
Cloud Levels
  • Clear skies
Temperature
16°C / 61°F
Dewpoint
-17°C / 1°F
Humidity
9%
Altimeter
30.12" Hg
Pressure
1019.92 hPa